Edenville, Michigan
Current Conditions -  °F | °C
As of 5:14 PM on Sunday 25 Jan 2015 (Local Time) from KIKW Reporting Station
Scattered Clouds Scattered Clouds  
Wind Chill:   Ceiling: Unl
Heat Index: 20°   Visibility: 10mi
Dew Point: 11°   Wind: 14mph
Humidity: 68%   Direction: 80°E
Pressure: 30.01"   Gusts: NA
Location:  43.8°N, 84.38°W
Report Text: KIKW 252214Z AUTO 08012KT 10SM SCT024 M06/M11 A3001 RMK AO2 T10651115
Loading
Personal Weather Stations






























Interactive Weather Map New forecast layout! Learn more

10-Day Weather Forecast

Advertisements
Track Severe Weather on mobile